Time;durP1;ratioP1;P1;durP2;ratioP2;P2;SDS_P1;SDS_P2;PMS_P1;PMS_P2;Temp;Humidity;BMP_temperature;BMP_pressure;BME280_temperature;BME280_humidity;BME280_pressure;Samples;Min_cycle;Max_cycle;Signal;HPM_P1;HPM_P2
2021/01/08 00:01:42;;;;;;;34.07;19.10;;;1.10;99.90;;;;;;5052342;28;20248;-76
2021/01/08 00:04:08;;;;;;;37.13;21.10;;;1.10;99.90;;;;;;5054045;28;20173;-75
2021/01/08 00:06:34;;;;;;;32.33;18.90;;;1.10;99.90;;;;;;5053655;28;20790;-75
2021/01/08 00:09:00;;;;;;;35.80;19.93;;;1.10;99.90;;;;;;5053804;28;20694;-76
2021/01/08 00:11:26;;;;;;;31.50;19.57;;;1.10;99.90;;;;;;5035955;28;20228;-75
2021/01/08 00:13:53;;;;;;;33.97;20.67;;;1.10;99.90;;;;;;5053960;28;20531;-75
2021/01/08 00:16:19;;;;;;;38.60;20.73;;;1.20;99.90;;;;;;5052632;28;20534;-75
2021/01/08 00:18:45;;;;;;;34.10;19.53;;;1.20;99.90;;;;;;5053637;28;20697;-75
2021/01/08 00:21:12;;;;;;;33.80;19.37;;;1.10;99.90;;;;;;5053798;28;20212;-75
2021/01/08 00:23:38;;;;;;;36.50;21.47;;;1.10;99.90;;;;;;5053507;28;20654;-75
2021/01/08 00:26:04;;;;;;;35.53;19.90;;;1.10;99.90;;;;;;5053928;28;20251;-75
2021/01/08 00:28:30;;;;;;;34.80;19.43;;;1.10;99.90;;;;;;5049756;28;20664;-75
2021/01/08 00:30:55;;;;;;;35.97;19.93;;;1.10;99.90;;;;;;5053403;28;20699;-75
2021/01/08 00:33:22;;;;;;;36.70;20.40;;;1.10;99.90;;;;;;5053645;28;20174;-75
2021/01/08 00:35:48;;;;;;;33.20;19.93;;;1.10;99.90;;;;;;5052389;28;20178;-75
2021/01/08 00:38:14;;;;;;;40.67;21.33;;;1.10;99.90;;;;;;5053195;28;20644;-76
2021/01/08 00:40:40;;;;;;;36.87;20.53;;;1.10;99.90;;;;;;5053651;28;20231;-75
2021/01/08 00:43:05;;;;;;;35.73;20.30;;;1.10;99.90;;;;;;5051920;28;20185;-74
2021/01/08 00:45:32;;;;;;;34.20;20.10;;;1.10;99.90;;;;;;5053505;28;20181;-75
2021/01/08 00:47:57;;;;;;;35.77;20.10;;;1.20;99.90;;;;;;5052987;28;20267;-75
2021/01/08 00:50:23;;;;;;;40.13;21.33;;;1.20;99.90;;;;;;5053149;28;20679;-75
2021/01/08 00:52:49;;;;;;;31.80;19.27;;;1.20;99.90;;;;;;5053401;28;20176;-75
2021/01/08 00:55:15;;;;;;;32.93;19.70;;;1.20;99.90;;;;;;5049717;28;20244;-74
2021/01/08 00:57:41;;;;;;;31.73;18.67;;;1.20;99.90;;;;;;5046883;28;20173;-76
2021/01/08 01:00:08;;;;;;;36.83;19.90;;;1.20;99.90;;;;;;5053144;28;20180;-76
2021/01/08 01:02:35;;;;;;;32.03;18.83;;;1.20;99.90;;;;;;5053254;28;20205;-75
2021/01/08 01:05:01;;;;;;;32.70;19.30;;;1.20;99.90;;;;;;5053681;28;20180;-75
2021/01/08 01:07:27;;;;;;;32.97;19.77;;;1.30;99.90;;;;;;5056932;28;20228;-75
2021/01/08 01:09:53;;;;;;;32.27;19.80;;;1.20;99.90;;;;;;5057017;28;20185;-75
2021/01/08 01:12:19;;;;;;;35.00;19.83;;;1.20;99.90;;;;;;5057207;28;20197;-75
2021/01/08 01:14:45;;;;;;;33.23;19.50;;;1.20;99.90;;;;;;5057295;28;20180;-75
2021/01/08 01:17:12;;;;;;;34.80;20.13;;;1.20;99.90;;;;;;5056813;28;20718;-75
2021/01/08 01:19:38;;;;;;;33.53;20.03;;;1.20;99.90;;;;;;5057274;28;20244;-75
2021/01/08 01:22:04;;;;;;;34.87;20.57;;;1.20;99.90;;;;;;5055452;28;20292;-75
2021/01/08 01:24:30;;;;;;;34.67;20.70;;;1.20;99.90;;;;;;5056721;28;20253;-75
2021/01/08 01:27:00;;;;;;;32.17;19.50;;;1.20;99.90;;;;;;5056689;28;20273;-75
2021/01/08 01:29:26;;;;;;;33.93;19.67;;;1.20;99.90;;;;;;5056784;28;20591;-75
2021/01/08 01:31:52;;;;;;;35.87;19.97;;;1.20;99.90;;;;;;5057000;28;20196;-75
2021/01/08 01:34:19;;;;;;;35.37;19.97;;;1.20;99.90;;;;;;5056970;28;20177;-75
2021/01/08 01:36:45;;;;;;;34.90;19.60;;;1.20;99.90;;;;;;5056740;28;20185;-75
2021/01/08 01:39:13;;;;;;;38.03;20.33;;;1.20;99.90;;;;;;5056561;28;20170;-75
2021/01/08 01:41:40;;;;;;;37.03;20.07;;;1.20;99.90;;;;;;5055319;28;20186;-75
2021/01/08 01:44:06;;;;;;;32.20;19.57;;;1.20;99.90;;;;;;5055110;28;20174;-75
2021/01/08 01:46:33;;;;;;;32.80;19.60;;;1.10;99.90;;;;;;5056631;28;20257;-75
2021/01/08 01:49:00;;;;;;;36.70;18.90;;;1.10;99.90;;;;;;5056662;28;20233;-75
2021/01/08 01:51:26;;;;;;;36.83;20.33;;;1.10;99.90;;;;;;5056176;28;20578;-74
2021/01/08 01:53:53;;;;;;;35.40;20.33;;;1.10;99.90;;;;;;5056627;28;20249;-75
2021/01/08 01:56:19;;;;;;;34.83;19.33;;;1.00;99.90;;;;;;5046017;28;20632;-75
2021/01/08 01:58:44;;;;;;;31.37;18.97;;;1.00;99.90;;;;;;5056225;28;20216;-75
2021/01/08 02:01:10;;;;;;;35.53;20.20;;;1.00;99.90;;;;;;5055848;28;20220;-76
2021/01/08 02:03:44;;;;;;;31.83;18.03;;;1.00;99.90;;;;;;5056372;28;20172;-75
2021/01/08 02:06:14;;;;;;;31.60;19.30;;;1.00;99.90;;;;;;5056138;28;20640;-75
2021/01/08 02:08:46;;;;;;;34.77;20.13;;;1.10;99.90;;;;;;5056338;28;20201;-75
2021/01/08 02:11:17;;;;;;;33.27;19.13;;;1.10;99.90;;;;;;5056306;28;20222;-75
2021/01/08 02:13:49;;;;;;;31.17;18.67;;;1.10;99.90;;;;;;5056295;28;20255;-74
2021/01/08 02:16:17;;;;;;;30.50;18.20;;;1.10;99.90;;;;;;5057921;28;20178;-75
2021/01/08 02:18:46;;;;;;;27.67;17.83;;;1.10;99.90;;;;;;5059140;28;20267;-75
2021/01/08 02:21:19;;;;;;;33.37;18.30;;;1.00;99.90;;;;;;5058258;28;20261;-75
2021/01/08 02:24:18;;;;;;;32.00;19.70;;;1.10;99.90;;;;;;5054649;28;20204;-76
2021/01/08 02:26:45;;;;;;;33.83;19.50;;;1.10;99.90;;;;;;5055570;28;20181;-75
2021/01/08 02:29:11;;;;;;;31.73;18.23;;;1.10;99.90;;;;;;5052814;28;20256;-75
2021/01/08 02:31:38;;;;;;;31.60;18.07;;;1.10;99.90;;;;;;5055810;28;20557;-75
2021/01/08 02:34:05;;;;;;;30.93;18.87;;;1.10;99.90;;;;;;5055534;28;20223;-75
2021/01/08 02:36:35;;;;;;;30.30;17.90;;;1.20;99.90;;;;;;5055867;28;20181;-75
2021/01/08 02:39:00;;;;;;;30.20;17.70;;;1.20;99.90;;;;;;5055366;28;20201;-75
2021/01/08 02:41:29;;;;;;;26.87;17.40;;;1.10;99.90;;;;;;5055593;28;20245;-75
2021/01/08 02:43:55;;;;;;;30.97;19.13;;;1.10;99.90;;;;;;5055669;28;20180;-75
2021/01/08 02:46:21;;;;;;;29.27;17.83;;;1.10;99.90;;;;;;5055472;28;20200;-75
2021/01/08 02:48:47;;;;;;;31.40;18.83;;;1.00;99.90;;;;;;5055146;28;20194;-75
2021/01/08 02:51:13;;;;;;;32.33;18.37;;;1.00;99.90;;;;;;5055247;28;20201;-75
2021/01/08 02:53:40;;;;;;;34.40;19.07;;;1.10;99.90;;;;;;5055062;28;20170;-75
2021/01/08 02:56:11;;;;;;;33.07;19.57;;;1.10;99.90;;;;;;5044966;28;20244;-75
2021/01/08 02:58:40;;;;;;;26.90;17.47;;;1.10;99.90;;;;;;5054990;28;20588;-75
2021/01/08 03:01:07;;;;;;;28.63;17.03;;;1.10;99.90;;;;;;5054517;28;20222;-75
2021/01/08 03:03:33;;;;;;;32.13;18.27;;;1.00;99.90;;;;;;5055149;28;20177;-75
2021/01/08 03:06:00;;;;;;;32.47;18.40;;;1.00;99.90;;;;;;5068834;22;20226;-78
2021/01/08 03:08:29;;;;;;;30.13;18.23;;;1.10;99.90;;;;;;5034796;28;20336;-78
2021/01/08 03:10:56;;;;;;;31.30;17.90;;;1.10;99.90;;;;;;5018794;28;20179;-77
2021/01/08 03:13:22;;;;;;;31.37;18.00;;;1.10;99.90;;;;;;5029594;28;20602;-77
2021/01/08 03:15:49;;;;;;;29.13;17.57;;;1.10;99.90;;;;;;5018367;28;20199;-78
2021/01/08 03:18:14;;;;;;;26.37;16.20;;;1.10;99.90;;;;;;5014959;28;20273;-78
2021/01/08 03:20:40;;;;;;;31.17;18.47;;;1.10;99.90;;;;;;5016150;28;20179;-78
2021/01/08 03:23:08;;;;;;;29.77;17.73;;;1.00;99.90;;;;;;5017328;28;20221;-77
2021/01/08 03:25:34;;;;;;;29.00;15.97;;;1.00;99.90;;;;;;5015678;28;20575;-78
2021/01/08 03:28:00;;;;;;;32.17;17.37;;;1.00;99.90;;;;;;5015957;28;20202;-77
2021/01/08 03:30:25;;;;;;;30.97;18.07;;;1.00;99.90;;;;;;5016641;28;20233;-78
2021/01/08 03:32:51;;;;;;;28.53;17.30;;;1.00;99.90;;;;;;5016686;28;20176;-78
2021/01/08 03:35:19;;;;;;;32.07;17.67;;;1.00;99.90;;;;;;5016604;28;20179;-78
2021/01/08 03:37:45;;;;;;;32.80;18.43;;;1.00;99.90;;;;;;5016323;28;20182;-77
2021/01/08 03:40:11;;;;;;;31.60;17.20;;;1.00;99.90;;;;;;5017112;28;20183;-78
2021/01/08 03:42:37;;;;;;;28.53;17.10;;;1.00;99.90;;;;;;4999397;28;20187;-78
2021/01/08 03:45:04;;;;;;;33.17;17.07;;;1.00;99.90;;;;;;5016094;28;20297;-78
2021/01/08 03:47:30;;;;;;;27.83;15.93;;;1.10;99.90;;;;;;4998145;28;20642;-78
2021/01/08 03:49:56;;;;;;;28.10;16.53;;;1.10;99.90;;;;;;5021199;28;20598;-77
2021/01/08 03:52:21;;;;;;;29.00;16.93;;;1.00;99.90;;;;;;5023835;28;20179;-77
2021/01/08 03:54:47;;;;;;;28.20;16.93;;;0.90;99.90;;;;;;5015754;28;20218;-77
2021/01/08 03:57:13;;;;;;;29.40;16.73;;;0.90;99.90;;;;;;4999038;28;20203;-78
2021/01/08 03:59:39;;;;;;;29.47;16.40;;;0.90;99.90;;;;;;5016451;28;20236;-78
2021/01/08 04:02:05;;;;;;;31.73;18.17;;;0.90;99.90;;;;;;5016515;28;20553;-78
2021/01/08 04:04:30;;;;;;;26.43;16.33;;;0.90;99.90;;;;;;5016734;28;20190;-77
2021/01/08 04:06:56;;;;;;;28.20;17.13;;;0.90;99.90;;;;;;5015835;28;20797;-78
2021/01/08 04:09:22;;;;;;;30.50;16.43;;;0.90;99.90;;;;;;4998824;28;20218;-78
2021/01/08 04:11:48;;;;;;;26.97;17.00;;;0.90;99.90;;;;;;4998932;28;20211;-78
2021/01/08 04:14:14;;;;;;;30.40;17.03;;;1.00;99.90;;;;;;5016757;28;20175;-78
2021/01/08 04:16:41;;;;;;;28.00;17.97;;;1.00;99.90;;;;;;4998497;28;20195;-78
2021/01/08 04:19:08;;;;;;;27.80;16.27;;;0.90;99.90;;;;;;4998633;28;20175;-78
2021/01/08 04:21:34;;;;;;;28.40;16.40;;;0.90;99.90;;;;;;5016047;28;20185;-78
2021/01/08 04:24:01;;;;;;;28.00;15.93;;;1.00;99.90;;;;;;5015583;28;20262;-78
2021/01/08 04:26:26;;;;;;;27.87;16.30;;;1.00;99.90;;;;;;5015723;28;20210;-78
2021/01/08 04:28:52;;;;;;;25.43;15.33;;;1.00;99.90;;;;;;4998346;28;20202;-78
2021/01/08 04:31:17;;;;;;;28.07;16.23;;;1.00;99.90;;;;;;5000159;28;20202;-78
2021/01/08 04:33:44;;;;;;;26.33;15.80;;;1.00;99.90;;;;;;5016317;28;20258;-77
2021/01/08 04:36:10;;;;;;;29.30;16.77;;;1.00;99.90;;;;;;4998589;28;20203;-78
2021/01/08 04:38:39;;;;;;;26.23;16.43;;;0.90;99.90;;;;;;5015903;28;20213;-78
2021/01/08 04:41:06;;;;;;;25.53;14.67;;;1.00;99.90;;;;;;5016032;28;20183;-77
2021/01/08 04:43:33;;;;;;;29.57;16.97;;;1.00;99.90;;;;;;5015461;28;20234;-77
2021/01/08 04:46:14;;;;;;;22.93;14.97;;;1.00;99.90;;;;;;5015078;28;20206;-77
2021/01/08 04:48:42;;;;;;;26.90;16.03;;;1.00;99.90;;;;;;5014851;28;20202;-77
2021/01/08 04:51:09;;;;;;;26.63;15.67;;;1.00;99.90;;;;;;4997473;28;20179;-77
2021/01/08 04:53:36;;;;;;;24.63;15.43;;;1.00;99.90;;;;;;5015246;28;20696;-77
2021/01/08 04:56:05;;;;;;;23.30;15.20;;;1.00;99.90;;;;;;5015571;28;20256;-78
2021/01/08 04:58:32;;;;;;;23.23;15.07;;;1.00;99.90;;;;;;5016225;28;20194;-77
2021/01/08 05:00:59;;;;;;;25.33;16.20;;;1.00;99.90;;;;;;5012565;28;20258;-78
2021/01/08 05:03:26;;;;;;;26.43;14.73;;;1.00;99.90;;;;;;4996618;28;20183;-77
2021/01/08 05:05:52;;;;;;;23.60;15.00;;;1.00;99.90;;;;;;5009045;28;20238;-78
2021/01/08 05:08:18;;;;;;;22.73;14.80;;;0.80;99.90;;;;;;5010702;28;20206;-77
2021/01/08 05:10:45;;;;;;;23.67;14.50;;;0.90;99.90;;;;;;5014099;28;20179;-78
2021/01/08 05:13:11;;;;;;;22.80;14.70;;;1.00;99.90;;;;;;4996409;28;20187;-78
2021/01/08 05:15:39;;;;;;;22.43;14.07;;;1.00;99.90;;;;;;5013914;28;20544;-78
2021/01/08 05:18:05;;;;;;;22.30;14.27;;;1.00;99.90;;;;;;5015546;28;20183;-78
2021/01/08 05:20:31;;;;;;;20.60;13.70;;;0.90;99.90;;;;;;5015472;28;20266;-78
2021/01/08 05:22:57;;;;;;;22.63;13.73;;;0.90;99.90;;;;;;5015470;28;20194;-78
2021/01/08 05:25:23;;;;;;;20.80;13.57;;;0.90;99.90;;;;;;5015433;28;20233;-78
2021/01/08 05:27:49;;;;;;;19.73;13.17;;;0.90;99.90;;;;;;5015010;28;20194;-78
2021/01/08 05:30:26;;;;;;;20.60;13.80;;;0.90;99.90;;;;;;5015561;28;20642;-78
2021/01/08 05:32:59;;;;;;;20.77;13.20;;;0.90;99.90;;;;;;5015009;28;20179;-78
2021/01/08 05:35:28;;;;;;;23.97;13.67;;;0.90;99.90;;;;;;5015729;28;20203;-77
2021/01/08 05:37:55;;;;;;;20.47;13.50;;;0.90;99.90;;;;;;4997643;28;20187;-78
2021/01/08 05:40:25;;;;;;;19.77;12.70;;;0.90;99.90;;;;;;5014719;28;20183;-78
2021/01/08 05:42:55;;;;;;;19.57;13.07;;;0.80;99.90;;;;;;5014841;28;20258;-78
2021/01/08 05:45:21;;;;;;;20.33;13.00;;;0.80;99.90;;;;;;4999171;28;20187;-78
2021/01/08 05:47:49;;;;;;;22.17;13.40;;;0.70;99.90;;;;;;4997193;28;20199;-78
2021/01/08 05:50:19;;;;;;;21.60;13.40;;;0.70;99.90;;;;;;5015084;28;20262;-78
2021/01/08 05:52:46;;;;;;;23.33;13.97;;;0.80;99.90;;;;;;5018021;28;20186;-77
2021/01/08 05:55:12;;;;;;;23.00;13.87;;;0.70;99.90;;;;;;5000731;28;20559;-78
2021/01/08 05:57:41;;;;;;;21.20;13.10;;;0.70;99.90;;;;;;5017717;28;20711;-78
2021/01/08 06:00:08;;;;;;;20.90;13.63;;;0.60;99.90;;;;;;5018267;28;20183;-77
2021/01/08 06:02:35;;;;;;;19.40;12.67;;;0.60;99.90;;;;;;5017865;28;20187;-77
2021/01/08 06:05:05;;;;;;;23.10;13.53;;;0.60;99.90;;;;;;5017346;28;20642;-77
2021/01/08 06:07:36;;;;;;;20.73;12.63;;;0.60;99.90;;;;;;5017269;28;20207;-78
2021/01/08 06:10:04;;;;;;;21.97;14.03;;;0.50;99.90;;;;;;5000534;28;20205;-77
2021/01/08 06:12:39;;;;;;;20.87;12.93;;;0.50;99.90;;;;;;5017075;28;20690;-77
2021/01/08 06:15:14;;;;;;;20.17;13.50;;;0.50;99.90;;;;;;5017080;28;20675;-78
2021/01/08 06:17:44;;;;;;;19.63;12.83;;;0.50;99.90;;;;;;5017305;28;20205;-77
2021/01/08 06:20:12;;;;;;;20.90;13.37;;;0.50;99.90;;;;;;5017314;28;20183;-77
2021/01/08 06:22:39;;;;;;;24.53;14.40;;;0.40;99.90;;;;;;5017827;28;20646;-77
2021/01/08 06:25:07;;;;;;;21.13;13.33;;;0.50;99.90;;;;;;5017995;28;20179;-78
2021/01/08 06:27:34;;;;;;;20.73;13.60;;;0.40;99.90;;;;;;5017845;28;20247;-78
2021/01/08 06:30:03;;;;;;;22.03;13.40;;;0.50;99.90;;;;;;5018029;28;20179;-77
2021/01/08 06:32:30;;;;;;;20.47;12.93;;;0.50;99.90;;;;;;5017744;28;20217;-77
2021/01/08 06:35:03;;;;;;;21.93;13.33;;;0.50;99.90;;;;;;5002062;28;20262;-77
2021/01/08 06:37:40;;;;;;;24.73;14.57;;;0.40;99.90;;;;;;5016727;28;20269;-77
2021/01/08 06:40:09;;;;;;;23.00;14.60;;;0.40;99.90;;;;;;5016464;28;20205;-77
2021/01/08 06:42:45;;;;;;;24.67;15.13;;;0.40;99.90;;;;;;4999351;28;20211;-77
2021/01/08 06:45:19;;;;;;;24.70;15.77;;;0.40;99.90;;;;;;5017683;28;20183;-77
2021/01/08 06:47:47;;;;;;;29.60;17.87;;;0.40;99.90;;;;;;5017743;28;20286;-77
2021/01/08 06:50:18;;;;;;;28.17;16.93;;;0.40;99.90;;;;;;5018089;28;20206;-77
2021/01/08 06:52:46;;;;;;;27.33;16.67;;;0.40;99.90;;;;;;5018077;28;20236;-78
2021/01/08 06:55:19;;;;;;;24.13;15.57;;;0.40;99.90;;;;;;4999344;28;20179;-77
2021/01/08 06:57:54;;;;;;;28.60;16.93;;;0.50;99.90;;;;;;5016484;28;20268;-78
2021/01/08 07:00:25;;;;;;;27.43;17.53;;;0.50;99.90;;;;;;5017074;28;20196;-78
2021/01/08 07:02:54;;;;;;;27.03;17.10;;;0.50;99.90;;;;;;5016729;28;20206;-78
2021/01/08 07:05:20;;;;;;;27.90;17.33;;;0.50;99.90;;;;;;4999696;28;20664;-78
2021/01/08 07:07:48;;;;;;;28.13;18.00;;;0.50;99.90;;;;;;5017128;28;20237;-78
2021/01/08 07:10:18;;;;;;;26.17;16.30;;;0.60;99.90;;;;;;4999288;28;20617;-78
2021/01/08 07:12:44;;;;;;;23.50;15.87;;;0.60;99.90;;;;;;4999275;28;20175;-78
2021/01/08 07:15:13;;;;;;;27.00;17.00;;;0.60;99.90;;;;;;5016921;28;20179;-77
2021/01/08 07:17:40;;;;;;;24.43;16.50;;;0.60;99.90;;;;;;5017081;28;20198;-78
2021/01/08 07:20:07;;;;;;;25.03;16.77;;;0.60;99.90;;;;;;5018119;28;20179;-78
2021/01/08 07:22:40;;;;;;;30.57;17.30;;;0.60;99.90;;;;;;4999530;28;20183;-78
2021/01/08 07:25:11;;;;;;;27.10;16.77;;;0.60;99.90;;;;;;5017201;28;20191;-78
2021/01/08 07:27:40;;;;;;;27.50;17.37;;;0.60;99.90;;;;;;5011299;28;20246;-78
2021/01/08 07:30:08;;;;;;;27.30;19.00;;;0.60;99.90;;;;;;5016287;28;20598;-77
2021/01/08 07:32:51;;;;;;;26.37;17.23;;;0.60;99.90;;;;;;4998799;28;20288;-78
2021/01/08 07:35:26;;;;;;;30.67;17.77;;;0.70;99.90;;;;;;5016269;28;20175;-78
2021/01/08 07:38:02;;;;;;;26.67;17.10;;;0.70;99.90;;;;;;5016173;28;20179;-78
2021/01/08 07:40:31;;;;;;;28.83;17.17;;;0.60;99.90;;;;;;5017101;28;20185;-78
2021/01/08 07:42:58;;;;;;;29.50;18.30;;;0.60;99.90;;;;;;5016744;28;20190;-78
2021/01/08 07:45:43;;;;;;;28.37;18.17;;;0.60;99.90;;;;;;5012795;28;20206;-78
2021/01/08 07:48:16;;;;;;;25.77;16.43;;;0.70;99.90;;;;;;5015739;28;20202;-78
2021/01/08 07:50:50;;;;;;;27.50;16.67;;;0.70;99.90;;;;;;5016277;28;20179;-78
2021/01/08 07:53:45;;;;;;;25.17;16.13;;;0.70;99.90;;;;;;5001625;28;20178;-78
2021/01/08 07:56:12;;;;;;;24.17;16.13;;;0.70;99.90;;;;;;5018243;28;20330;-78
2021/01/08 07:58:38;;;;;;;26.70;15.93;;;0.80;99.90;;;;;;5016703;28;20198;-77
2021/01/08 08:01:05;;;;;;;24.37;15.70;;;0.70;99.90;;;;;;5014617;28;20214;-77
2021/01/08 08:03:31;;;;;;;25.17;15.07;;;0.80;99.90;;;;;;5031480;23;20224;-77
2021/01/08 08:05:59;;;;;;;21.00;14.23;;;0.60;99.90;;;;;;5045731;28;20438;-77
2021/01/08 08:08:26;;;;;;;25.10;15.97;;;0.50;99.90;;;;;;5043524;28;20661;-77
2021/01/08 08:10:52;;;;;;;22.20;14.83;;;0.50;99.90;;;;;;5035101;28;20193;-76
2021/01/08 08:13:28;;;;;;;23.13;15.30;;;0.40;99.90;;;;;;5033984;28;20664;-77
2021/01/08 08:15:54;;;;;;;24.17;14.83;;;0.40;99.90;;;;;;5031697;28;20575;-76
2021/01/08 08:18:20;;;;;;;22.13;14.17;;;0.40;99.90;;;;;;5037128;28;20170;-77
2021/01/08 08:20:46;;;;;;;21.03;14.37;;;0.30;99.90;;;;;;5040441;28;20174;-76
2021/01/08 08:23:15;;;;;;;26.27;15.50;;;0.40;99.90;;;;;;5041851;28;20228;-76
2021/01/08 08:25:42;;;;;;;27.53;16.47;;;0.40;99.90;;;;;;5050366;28;20205;-77
2021/01/08 08:28:08;;;;;;;27.43;14.83;;;0.40;99.90;;;;;;5051662;28;20598;-78
2021/01/08 08:30:34;;;;;;;27.13;16.00;;;0.40;99.90;;;;;;5039448;28;20169;-77
2021/01/08 08:33:03;;;;;;;24.40;16.00;;;0.40;99.90;;;;;;5039943;28;20672;-77
2021/01/08 08:35:28;;;;;;;23.63;15.37;;;0.50;99.90;;;;;;5044430;28;20216;-76
2021/01/08 08:37:57;;;;;;;27.53;15.10;;;0.50;99.90;;;;;;5040834;28;20649;-77
2021/01/08 08:40:30;;;;;;;29.83;16.27;;;0.40;99.90;;;;;;5042708;28;20649;-77
2021/01/08 08:43:00;;;;;;;25.83;15.83;;;0.50;99.90;;;;;;5033289;28;20607;-77
2021/01/08 08:45:31;;;;;;;22.67;15.60;;;0.40;99.90;;;;;;5034203;28;20281;-77
2021/01/08 08:47:59;;;;;;;27.93;17.63;;;0.40;99.90;;;;;;5032696;28;20232;-78
2021/01/08 08:50:25;;;;;;;29.33;18.63;;;0.40;99.90;;;;;;5034929;28;20165;-78
2021/01/08 08:52:52;;;;;;;27.80;16.83;;;0.50;99.90;;;;;;5034950;28;20174;-77
2021/01/08 08:55:31;;;;;;;33.53;18.73;;;0.50;99.90;;;;;;5034022;28;20200;-77
2021/01/08 08:58:07;;;;;;;26.83;17.87;;;0.50;99.90;;;;;;5045776;28;20174;-77
2021/01/08 09:00:37;;;;;;;28.87;17.67;;;0.50;99.90;;;;;;5030893;28;20249;-77
2021/01/08 09:03:19;;;;;;;27.67;17.27;;;0.50;99.90;;;;;;5028979;28;20197;-77
2021/01/08 09:05:48;;;;;;;27.87;17.73;;;0.50;99.90;;;;;;5020783;28;20700;-77
2021/01/08 09:08:25;;;;;;;41.10;17.80;;;0.50;99.90;;;;;;5034315;28;20687;-77
2021/01/08 09:10:55;;;;;;;25.43;17.17;;;0.50;99.90;;;;;;5024240;28;20216;-77
2021/01/08 09:13:30;;;;;;;26.27;16.67;;;0.50;99.90;;;;;;5034817;28;20253;-77
2021/01/08 09:16:08;;;;;;;27.70;17.80;;;0.50;99.90;;;;;;5025792;28;20198;-76
2021/01/08 09:19:00;;;;;;;28.00;17.93;;;0.50;99.90;;;;;;5025960;28;20181;-77
2021/01/08 09:21:31;;;;;;;28.37;17.40;;;0.50;99.90;;;;;;5020480;28;20533;-76
2021/01/08 09:23:59;;;;;;;28.57;17.47;;;0.50;99.90;;;;;;5026015;28;20179;-78
2021/01/08 09:26:25;;;;;;;30.53;18.60;;;0.50;99.90;;;;;;5033938;28;20194;-78
2021/01/08 09:28:55;;;;;;;30.40;18.43;;;0.50;99.90;;;;;;5058835;23;20215;-78
2021/01/08 09:31:37;;;;;;;25.57;17.33;;;0.50;99.90;;;;;;5023839;28;20680;-78
2021/01/08 09:34:03;;;;;;;29.80;17.57;;;0.60;99.90;;;;;;5020327;28;20667;-78
2021/01/08 09:36:34;;;;;;;29.40;17.93;;;0.60;99.90;;;;;;5021191;28;20258;-78
2021/01/08 09:39:05;;;;;;;29.27;17.93;;;0.50;99.90;;;;;;5017373;28;20218;-78
2021/01/08 09:41:34;;;;;;;29.87;18.97;;;0.50;99.90;;;;;;5020034;28;20187;-78
2021/01/08 09:44:01;;;;;;;27.23;17.90;;;0.40;99.90;;;;;;5019049;28;20189;-78
2021/01/08 09:46:27;;;;;;;30.27;18.10;;;0.50;99.90;;;;;;5018854;28;20189;-78
2021/01/08 09:48:54;;;;;;;29.60;18.20;;;0.50;99.90;;;;;;5017338;28;20243;-78
2021/01/08 09:51:21;;;;;;;27.97;17.73;;;0.60;99.90;;;;;;5017958;28;20265;-78
2021/01/08 09:54:03;;;;;;;29.03;18.50;;;0.50;99.90;;;;;;5016810;28;20168;-78
2021/01/08 09:56:29;;;;;;;29.87;18.63;;;0.60;99.90;;;;;;5019629;28;20257;-78
2021/01/08 09:59:15;;;;;;;30.07;18.20;;;0.60;99.90;;;;;;5017526;28;20584;-78
2021/01/08 10:02:24;;;;;;;28.20;18.47;;;0.60;99.90;;;;;;5002784;28;20186;-78
2021/01/08 10:04:44;;;;;;;31.03;19.17;;;0.70;99.90;;;;;;5013994;28;20233;-78
2021/01/08 10:07:10;;;;;;;30.93;18.93;;;0.70;99.90;;;;;;5018039;28;20212;-79
2021/01/08 10:09:51;;;;;;;30.37;19.53;;;0.70;99.90;;;;;;5015758;28;20199;-78
2021/01/08 10:12:18;;;;;;;27.83;18.07;;;0.80;99.90;;;;;;5012874;28;20171;-79
2021/01/08 10:14:45;;;;;;;29.80;18.40;;;0.90;99.90;;;;;;5017809;28;20181;-78
2021/01/08 10:17:16;;;;;;;27.60;18.27;;;0.90;99.90;;;;;;5014674;28;20231;-78
2021/01/08 10:19:46;;;;;;;28.87;17.17;;;0.90;99.90;;;;;;5012331;28;20558;-78
2021/01/08 10:22:13;;;;;;;29.00;17.60;;;1.00;99.90;;;;;;5013928;28;20206;-78
2021/01/08 10:24:38;;;;;;;26.27;16.37;;;1.00;99.90;;;;;;5012976;28;20263;-78
2021/01/08 10:27:05;;;;;;;26.70;16.87;;;1.00;99.90;;;;;;5014678;28;20182;-79
2021/01/08 10:29:35;;;;;;;24.93;17.57;;;0.90;99.90;;;;;;5010719;28;20556;-78
2021/01/08 10:32:09;;;;;;;25.77;17.17;;;0.80;99.90;;;;;;5017049;28;20171;-78
2021/01/08 10:34:36;;;;;;;26.53;17.13;;;0.80;99.90;;;;;;5027307;28;20199;-78
2021/01/08 10:37:03;;;;;;;25.70;17.07;;;0.90;99.90;;;;;;5016468;28;20227;-78
2021/01/08 10:39:28;;;;;;;23.97;16.87;;;0.90;99.90;;;;;;5013997;28;20207;-78
2021/01/08 10:41:54;;;;;;;25.23;16.93;;;0.90;99.90;;;;;;5008297;28;20213;-78
2021/01/08 10:44:20;;;;;;;27.13;17.23;;;1.00;99.90;;;;;;5010931;28;20187;-77
2021/01/08 10:46:47;;;;;;;25.97;16.97;;;1.00;99.90;;;;;;5011359;28;20175;-78
2021/01/08 10:49:12;;;;;;;25.67;17.47;;;1.00;99.90;;;;;;5014838;28;20218;-78
2021/01/08 10:51:38;;;;;;;24.87;16.17;;;1.00;99.90;;;;;;5015013;28;20193;-77
2021/01/08 10:54:04;;;;;;;25.77;16.17;;;1.00;99.90;;;;;;5014418;28;20179;-78
2021/01/08 10:56:31;;;;;;;23.40;16.70;;;1.00;99.90;;;;;;5015226;28;20175;-77
2021/01/08 10:58:57;;;;;;;24.83;15.60;;;0.90;99.90;;;;;;5006240;28;20230;-78
2021/01/08 11:01:23;;;;;;;24.80;16.03;;;0.90;99.90;;;;;;5031729;28;20182;-77
2021/01/08 11:03:49;;;;;;;49.90;22.07;;;1.00;99.90;;;;;;5016900;28;20253;-78
2021/01/08 11:06:17;;;;;;;37.33;18.53;;;1.00;99.90;;;;;;5016509;28;20645;-78
2021/01/08 11:08:43;;;;;;;26.60;17.33;;;1.10;99.90;;;;;;5016716;28;20211;-78
2021/01/08 11:11:10;;;;;;;32.73;17.43;;;1.10;99.90;;;;;;5017168;28;20553;-78
2021/01/08 11:13:36;;;;;;;33.47;17.20;;;1.20;99.90;;;;;;5017869;28;20167;-78
2021/01/08 11:16:02;;;;;;;33.13;18.10;;;1.20;99.90;;;;;;5018076;28;20238;-78
2021/01/08 11:18:28;;;;;;;28.13;16.70;;;1.30;99.90;;;;;;5018001;28;20206;-78
2021/01/08 11:20:54;;;;;;;26.27;16.60;;;1.30;99.90;;;;;;5017287;28;20175;-78
2021/01/08 11:23:20;;;;;;;24.03;14.90;;;1.40;99.90;;;;;;5016366;28;20185;-78
2021/01/08 11:25:46;;;;;;;24.13;15.17;;;1.40;99.90;;;;;;5016101;28;20654;-78
2021/01/08 11:28:12;;;;;;;23.70;15.60;;;1.50;99.90;;;;;;5032488;28;20207;-78
2021/01/08 11:30:37;;;;;;;24.87;15.77;;;1.50;99.90;;;;;;5017107;28;20163;-78
2021/01/08 11:33:04;;;;;;;20.37;15.13;;;1.50;99.90;;;;;;5016785;28;20171;-78
2021/01/08 11:35:30;;;;;;;23.27;15.10;;;1.50;99.90;;;;;;5016314;28;20174;-78
2021/01/08 11:37:55;;;;;;;22.57;15.67;;;1.60;99.90;;;;;;5016284;28;20203;-77
2021/01/08 11:40:22;;;;;;;22.20;15.17;;;1.60;99.90;;;;;;5016372;28;20178;-78
2021/01/08 11:42:47;;;;;;;21.27;14.90;;;1.60;99.90;;;;;;5015953;28;20650;-78
2021/01/08 11:45:13;;;;;;;22.37;14.77;;;1.60;99.90;;;;;;5015388;28;20178;-77
2021/01/08 11:47:39;;;;;;;23.83;15.67;;;1.50;99.90;;;;;;5015532;28;20665;-77
2021/01/08 11:50:05;;;;;;;21.40;14.50;;;1.40;99.90;;;;;;5015809;28;20253;-78
2021/01/08 11:52:41;;;;;;;20.47;15.10;;;1.40;99.90;;;;;;5015693;28;20181;-77
2021/01/08 11:55:08;;;;;;;21.73;15.20;;;1.40;99.90;;;;;;5030951;28;20174;-77
2021/01/08 11:57:34;;;;;;;21.77;15.77;;;1.50;99.90;;;;;;5015126;28;20199;-77
2021/01/08 11:59:59;;;;;;;21.53;14.60;;;1.60;99.90;;;;;;5017878;28;20182;-78
2021/01/08 12:02:25;;;;;;;21.10;14.53;;;1.60;99.90;;;;;;5015593;28;20199;-77
2021/01/08 12:04:50;;;;;;;19.90;13.87;;;1.60;99.90;;;;;;5016256;28;20185;-77
2021/01/08 12:07:17;;;;;;;18.57;13.80;;;1.60;99.90;;;;;;5014922;28;20222;-78
2021/01/08 12:09:43;;;;;;;19.87;13.70;;;1.60;99.90;;;;;;5015543;28;20217;-78
2021/01/08 12:12:09;;;;;;;21.90;14.40;;;1.60;99.90;;;;;;5015578;28;20179;-78
2021/01/08 12:14:35;;;;;;;21.43;16.13;;;1.60;99.90;;;;;;5032058;28;20171;-78
2021/01/08 12:17:05;;;;;;;20.10;14.53;;;1.70;99.90;;;;;;5016112;28;20298;-78
2021/01/08 12:19:35;;;;;;;23.83;16.27;;;1.70;99.90;;;;;;5016233;28;20595;-78
2021/01/08 12:22:02;;;;;;;23.27;14.90;;;1.70;99.90;;;;;;5016472;28;20178;-78
2021/01/08 12:24:28;;;;;;;31.90;16.73;;;1.70;99.90;;;;;;5015351;28;20179;-77
2021/01/08 12:26:55;;;;;;;23.63;15.53;;;1.60;99.90;;;;;;5016106;28;20195;-78
2021/01/08 12:29:22;;;;;;;23.40;15.93;;;1.60;99.90;;;;;;5015463;28;20237;-78
2021/01/08 12:31:48;;;;;;;24.17;16.37;;;1.70;99.90;;;;;;5015827;28;20179;-78
2021/01/08 12:34:14;;;;;;;21.83;15.43;;;1.70;99.90;;;;;;5015028;28;20178;-77
2021/01/08 12:36:41;;;;;;;24.73;15.63;;;1.80;99.90;;;;;;5015648;28;20182;-77
2021/01/08 12:39:08;;;;;;;19.77;14.93;;;1.80;99.90;;;;;;5030717;28;20565;-78
2021/01/08 12:41:34;;;;;;;25.03;16.00;;;1.80;99.90;;;;;;5016523;28;20183;-78